sensor_id;sensor_type;location;lat;lon;timestamp;P1;durP1;ratioP1;P2;durP2;ratioP2
25231;SDS011;13176;51.140;6.290;2022-10-31T00:00:27;62.47;;;58.38;;
25231;SDS011;13176;51.140;6.290;2022-10-31T00:02:53;58.53;;;54.78;;
25231;SDS011;13176;51.140;6.290;2022-10-31T00:05:20;60.60;;;56.45;;
25231;SDS011;13176;51.140;6.290;2022-10-31T00:07:46;64.35;;;59.58;;
25231;SDS011;13176;51.140;6.290;2022-10-31T00:10:13;60.22;;;56.35;;
25231;SDS011;13176;51.140;6.290;2022-10-31T00:12:39;67.43;;;62.70;;
25231;SDS011;13176;51.140;6.290;2022-10-31T00:15:06;63.05;;;59.15;;
25231;SDS011;13176;51.140;6.290;2022-10-31T00:17:34;56.72;;;53.20;;
25231;SDS011;13176;51.140;6.290;2022-10-31T00:20:01;60.33;;;56.22;;
25231;SDS011;13176;51.140;6.290;2022-10-31T00:22:28;62.58;;;58.47;;
25231;SDS011;13176;51.140;6.290;2022-10-31T00:24:54;62.88;;;58.47;;
25231;SDS011;13176;51.140;6.290;2022-10-31T00:27:20;63.00;;;58.30;;
25231;SDS011;13176;51.140;6.290;2022-10-31T00:29:47;64.65;;;60.10;;
25231;SDS011;13176;51.140;6.290;2022-10-31T00:32:13;60.78;;;56.85;;
25231;SDS011;13176;51.140;6.290;2022-10-31T00:34:39;62.20;;;58.08;;
25231;SDS011;13176;51.140;6.290;2022-10-31T00:37:06;66.60;;;62.33;;
25231;SDS011;13176;51.140;6.290;2022-10-31T00:39:33;59.15;;;55.17;;
25231;SDS011;13176;51.140;6.290;2022-10-31T00:42:00;59.50;;;55.83;;
25231;SDS011;13176;51.140;6.290;2022-10-31T00:44:26;59.25;;;55.22;;
25231;SDS011;13176;51.140;6.290;2022-10-31T00:46:52;57.75;;;54.00;;
25231;SDS011;13176;51.140;6.290;2022-10-31T00:49:19;55.83;;;52.15;;
25231;SDS011;13176;51.140;6.290;2022-10-31T00:51:45;58.90;;;54.92;;
25231;SDS011;13176;51.140;6.290;2022-10-31T00:54:11;59.78;;;55.70;;
25231;SDS011;13176;51.140;6.290;2022-10-31T00:56:38;60.53;;;56.63;;
25231;SDS011;13176;51.140;6.290;2022-10-31T00:59:04;59.08;;;55.38;;
25231;SDS011;13176;51.140;6.290;2022-10-31T01:01:30;58.30;;;54.20;;
25231;SDS011;13176;51.140;6.290;2022-10-31T01:03:57;54.10;;;50.65;;
25231;SDS011;13176;51.140;6.290;2022-10-31T01:06:23;60.20;;;56.40;;
25231;SDS011;13176;51.140;6.290;2022-10-31T01:08:50;55.50;;;51.67;;
25231;SDS011;13176;51.140;6.290;2022-10-31T01:11:17;58.75;;;54.80;;
25231;SDS011;13176;51.140;6.290;2022-10-31T01:13:46;56.30;;;52.75;;
25231;SDS011;13176;51.140;6.290;2022-10-31T01:16:14;56.45;;;52.78;;
25231;SDS011;13176;51.140;6.290;2022-10-31T01:18:42;56.33;;;52.42;;
25231;SDS011;13176;51.140;6.290;2022-10-31T01:21:10;54.80;;;50.88;;
25231;SDS011;13176;51.140;6.290;2022-10-31T01:23:41;54.13;;;50.33;;
25231;SDS011;13176;51.140;6.290;2022-10-31T01:28:36;55.33;;;51.72;;
25231;SDS011;13176;51.140;6.290;2022-10-31T01:31:05;55.88;;;51.83;;
25231;SDS011;13176;51.140;6.290;2022-10-31T01:33:34;53.65;;;50.20;;
25231;SDS011;13176;51.140;6.290;2022-10-31T01:36:10;55.10;;;51.50;;
25231;SDS011;13176;51.140;6.290;2022-10-31T01:38:42;53.42;;;50.13;;
25231;SDS011;13176;51.140;6.290;2022-10-31T01:41:09;58.40;;;54.47;;
25231;SDS011;13176;51.140;6.290;2022-10-31T01:43:45;61.72;;;57.42;;
25231;SDS011;13176;51.140;6.290;2022-10-31T01:46:31;58.17;;;53.72;;
25231;SDS011;13176;51.140;6.290;2022-10-31T01:49:02;56.08;;;52.55;;
25231;SDS011;13176;51.140;6.290;2022-10-31T01:51:33;61.03;;;57.20;;
25231;SDS011;13176;51.140;6.290;2022-10-31T01:54:06;63.53;;;59.42;;
25231;SDS011;13176;51.140;6.290;2022-10-31T01:56:37;70.38;;;65.57;;
25231;SDS011;13176;51.140;6.290;2022-10-31T01:59:07;69.00;;;64.50;;
25231;SDS011;13176;51.140;6.290;2022-10-31T02:01:37;70.28;;;65.72;;
25231;SDS011;13176;51.140;6.290;2022-10-31T02:04:04;73.68;;;69.05;;
25231;SDS011;13176;51.140;6.290;2022-10-31T02:06:43;69.80;;;65.35;;
25231;SDS011;13176;51.140;6.290;2022-10-31T02:09:14;70.10;;;65.65;;
25231;SDS011;13176;51.140;6.290;2022-10-31T02:11:41;70.97;;;66.30;;
25231;SDS011;13176;51.140;6.290;2022-10-31T02:14:09;66.10;;;62.03;;
25231;SDS011;13176;51.140;6.290;2022-10-31T02:16:35;68.95;;;64.47;;
25231;SDS011;13176;51.140;6.290;2022-10-31T02:19:02;68.03;;;63.58;;
25231;SDS011;13176;51.140;6.290;2022-10-31T02:21:53;64.78;;;60.78;;
25231;SDS011;13176;51.140;6.290;2022-10-31T02:27:36;61.08;;;57.22;;
25231;SDS011;13176;51.140;6.290;2022-10-31T02:30:30;60.35;;;56.55;;
25231;SDS011;13176;51.140;6.290;2022-10-31T02:35:54;65.15;;;60.92;;
25231;SDS011;13176;51.140;6.290;2022-10-31T02:41:16;72.72;;;67.95;;
25231;SDS011;13176;51.140;6.290;2022-10-31T02:44:03;66.63;;;62.50;;
25231;SDS011;13176;51.140;6.290;2022-10-31T02:49:18;69.13;;;64.68;;
25231;SDS011;13176;51.140;6.290;2022-10-31T02:51:51;71.65;;;67.03;;
25231;SDS011;13176;51.140;6.290;2022-10-31T02:54:18;69.80;;;65.60;;
25231;SDS011;13176;51.140;6.290;2022-10-31T02:56:47;67.45;;;63.00;;
25231;SDS011;13176;51.140;6.290;2022-10-31T02:59:17;65.82;;;61.40;;
25231;SDS011;13176;51.140;6.290;2022-10-31T03:01:50;68.28;;;63.85;;
25231;SDS011;13176;51.140;6.290;2022-10-31T03:10:03;56.03;;;51.83;;
25231;SDS011;13176;51.140;6.290;2022-10-31T03:12:40;64.78;;;60.67;;
25231;SDS011;13176;51.140;6.290;2022-10-31T03:15:14;67.18;;;62.88;;
25231;SDS011;13176;51.140;6.290;2022-10-31T03:17:50;69.30;;;64.88;;
25231;SDS011;13176;51.140;6.290;2022-10-31T03:20:26;70.95;;;66.45;;
25231;SDS011;13176;51.140;6.290;2022-10-31T03:23:00;69.07;;;64.50;;
25231;SDS011;13176;51.140;6.290;2022-10-31T03:25:30;70.30;;;65.47;;
25231;SDS011;13176;51.140;6.290;2022-10-31T03:28:00;73.18;;;68.57;;
25231;SDS011;13176;51.140;6.290;2022-10-31T03:30:30;70.43;;;65.68;;
25231;SDS011;13176;51.140;6.290;2022-10-31T03:33:01;71.15;;;66.18;;
25231;SDS011;13176;51.140;6.290;2022-10-31T03:35:32;66.78;;;62.55;;
25231;SDS011;13176;51.140;6.290;2022-10-31T03:38:00;70.30;;;65.55;;
25231;SDS011;13176;51.140;6.290;2022-10-31T03:40:33;68.35;;;63.92;;
25231;SDS011;13176;51.140;6.290;2022-10-31T03:43:06;68.05;;;63.65;;
25231;SDS011;13176;51.140;6.290;2022-10-31T04:03:43;67.10;;;62.28;;
25231;SDS011;13176;51.140;6.290;2022-10-31T04:06:11;70.43;;;65.88;;
25231;SDS011;13176;51.140;6.290;2022-10-31T04:08:45;70.20;;;65.22;;
25231;SDS011;13176;51.140;6.290;2022-10-31T04:11:23;70.72;;;65.97;;
25231;SDS011;13176;51.140;6.290;2022-10-31T04:13:54;67.50;;;63.15;;
25231;SDS011;13176;51.140;6.290;2022-10-31T04:16:23;66.20;;;61.58;;
25231;SDS011;13176;51.140;6.290;2022-10-31T04:18:51;68.70;;;64.47;;
25231;SDS011;13176;51.140;6.290;2022-10-31T04:21:18;65.00;;;60.70;;
25231;SDS011;13176;51.140;6.290;2022-10-31T04:23:44;69.57;;;64.75;;
25231;SDS011;13176;51.140;6.290;2022-10-31T04:26:11;66.65;;;62.33;;
25231;SDS011;13176;51.140;6.290;2022-10-31T04:28:38;65.25;;;60.88;;
25231;SDS011;13176;51.140;6.290;2022-10-31T04:31:05;69.50;;;64.82;;
25231;SDS011;13176;51.140;6.290;2022-10-31T04:33:31;68.00;;;63.42;;
25231;SDS011;13176;51.140;6.290;2022-10-31T04:35:57;66.95;;;62.38;;
25231;SDS011;13176;51.140;6.290;2022-10-31T04:38:24;63.63;;;59.55;;
25231;SDS011;13176;51.140;6.290;2022-10-31T04:40:50;64.82;;;60.47;;
25231;SDS011;13176;51.140;6.290;2022-10-31T04:43:16;63.78;;;59.85;;
25231;SDS011;13176;51.140;6.290;2022-10-31T04:45:48;64.05;;;60.08;;
25231;SDS011;13176;51.140;6.290;2022-10-31T04:48:14;64.20;;;59.95;;
25231;SDS011;13176;51.140;6.290;2022-10-31T04:50:41;64.68;;;60.20;;
25231;SDS011;13176;51.140;6.290;2022-10-31T04:53:07;64.95;;;60.42;;
25231;SDS011;13176;51.140;6.290;2022-10-31T04:55:35;68.90;;;64.20;;
25231;SDS011;13176;51.140;6.290;2022-10-31T04:58:02;69.13;;;64.65;;
25231;SDS011;13176;51.140;6.290;2022-10-31T05:00:29;68.57;;;64.28;;
25231;SDS011;13176;51.140;6.290;2022-10-31T05:02:56;66.10;;;61.60;;
25231;SDS011;13176;51.140;6.290;2022-10-31T05:05:25;67.38;;;62.72;;
25231;SDS011;13176;51.140;6.290;2022-10-31T05:07:54;67.97;;;62.97;;
25231;SDS011;13176;51.140;6.290;2022-10-31T05:10:22;64.90;;;60.40;;
25231;SDS011;13176;51.140;6.290;2022-10-31T05:12:53;69.38;;;64.57;;
25231;SDS011;13176;51.140;6.290;2022-10-31T05:15:24;66.23;;;61.83;;
25231;SDS011;13176;51.140;6.290;2022-10-31T05:17:52;69.85;;;65.20;;
25231;SDS011;13176;51.140;6.290;2022-10-31T05:20:20;68.50;;;64.18;;
25231;SDS011;13176;51.140;6.290;2022-10-31T05:22:50;67.88;;;63.53;;
25231;SDS011;13176;51.140;6.290;2022-10-31T05:25:19;68.38;;;63.97;;
25231;SDS011;13176;51.140;6.290;2022-10-31T05:27:48;63.78;;;59.70;;
25231;SDS011;13176;51.140;6.290;2022-10-31T05:30:17;64.97;;;60.60;;
25231;SDS011;13176;51.140;6.290;2022-10-31T05:33:01;66.18;;;61.40;;
25231;SDS011;13176;51.140;6.290;2022-10-31T05:35:30;64.97;;;60.53;;
25231;SDS011;13176;51.140;6.290;2022-10-31T05:37:57;63.08;;;58.90;;
25231;SDS011;13176;51.140;6.290;2022-10-31T05:40:25;66.55;;;62.03;;
25231;SDS011;13176;51.140;6.290;2022-10-31T05:42:53;69.00;;;64.25;;
25231;SDS011;13176;51.140;6.290;2022-10-31T05:45:22;67.38;;;63.08;;
25231;SDS011;13176;51.140;6.290;2022-10-31T05:47:52;64.90;;;60.35;;
25231;SDS011;13176;51.140;6.290;2022-10-31T05:50:20;68.20;;;63.78;;
25231;SDS011;13176;51.140;6.290;2022-10-31T05:52:47;63.53;;;58.80;;
25231;SDS011;13176;51.140;6.290;2022-10-31T05:55:13;66.90;;;62.55;;
25231;SDS011;13176;51.140;6.290;2022-10-31T05:57:40;69.43;;;64.50;;
25231;SDS011;13176;51.140;6.290;2022-10-31T06:00:06;65.93;;;61.65;;
25231;SDS011;13176;51.140;6.290;2022-10-31T06:02:33;66.80;;;62.17;;
25231;SDS011;13176;51.140;6.290;2022-10-31T06:05:00;64.93;;;60.70;;
25231;SDS011;13176;51.140;6.290;2022-10-31T06:07:31;67.15;;;62.70;;
25231;SDS011;13176;51.140;6.290;2022-10-31T06:09:59;70.25;;;65.25;;
25231;SDS011;13176;51.140;6.290;2022-10-31T06:12:25;69.25;;;64.57;;
25231;SDS011;13176;51.140;6.290;2022-10-31T06:14:51;65.93;;;61.80;;
25231;SDS011;13176;51.140;6.290;2022-10-31T06:17:18;63.60;;;59.20;;
25231;SDS011;13176;51.140;6.290;2022-10-31T06:19:44;62.17;;;58.00;;
25231;SDS011;13176;51.140;6.290;2022-10-31T06:22:10;63.22;;;58.95;;
25231;SDS011;13176;51.140;6.290;2022-10-31T06:24:37;64.60;;;60.20;;
25231;SDS011;13176;51.140;6.290;2022-10-31T06:27:04;58.38;;;54.42;;
25231;SDS011;13176;51.140;6.290;2022-10-31T06:29:32;62.67;;;58.10;;
25231;SDS011;13176;51.140;6.290;2022-10-31T06:31:58;61.38;;;57.30;;
25231;SDS011;13176;51.140;6.290;2022-10-31T06:34:24;61.55;;;56.92;;
25231;SDS011;13176;51.140;6.290;2022-10-31T06:36:51;62.80;;;58.60;;
25231;SDS011;13176;51.140;6.290;2022-10-31T06:39:17;64.22;;;59.60;;
25231;SDS011;13176;51.140;6.290;2022-10-31T06:41:44;65.35;;;61.03;;
25231;SDS011;13176;51.140;6.290;2022-10-31T06:44:13;63.13;;;58.80;;
25231;SDS011;13176;51.140;6.290;2022-10-31T06:46:40;63.17;;;59.05;;
25231;SDS011;13176;51.140;6.290;2022-10-31T06:49:06;63.20;;;58.92;;
25231;SDS011;13176;51.140;6.290;2022-10-31T06:51:32;63.40;;;59.10;;
25231;SDS011;13176;51.140;6.290;2022-10-31T06:53:59;64.13;;;59.55;;
25231;SDS011;13176;51.140;6.290;2022-10-31T06:56:25;65.22;;;60.95;;
25231;SDS011;13176;51.140;6.290;2022-10-31T06:58:51;61.80;;;57.65;;
25231;SDS011;13176;51.140;6.290;2022-10-31T07:01:18;60.28;;;56.28;;
25231;SDS011;13176;51.140;6.290;2022-10-31T07:03:44;56.58;;;52.58;;
25231;SDS011;13176;51.140;6.290;2022-10-31T07:06:11;62.65;;;58.65;;
25231;SDS011;13176;51.140;6.290;2022-10-31T07:08:39;63.08;;;58.72;;
25231;SDS011;13176;51.140;6.290;2022-10-31T07:11:05;63.10;;;58.53;;
25231;SDS011;13176;51.140;6.290;2022-10-31T07:13:32;64.15;;;60.05;;
25231;SDS011;13176;51.140;6.290;2022-10-31T07:15:59;60.90;;;56.85;;
25231;SDS011;13176;51.140;6.290;2022-10-31T07:18:27;59.90;;;56.05;;
25231;SDS011;13176;51.140;6.290;2022-10-31T07:20:54;62.42;;;58.35;;
25231;SDS011;13176;51.140;6.290;2022-10-31T07:23:21;61.63;;;57.50;;
25231;SDS011;13176;51.140;6.290;2022-10-31T07:25:47;64.45;;;59.38;;
25231;SDS011;13176;51.140;6.290;2022-10-31T07:28:14;60.70;;;56.72;;
25231;SDS011;13176;51.140;6.290;2022-10-31T07:30:40;62.25;;;57.80;;
25231;SDS011;13176;51.140;6.290;2022-10-31T07:33:07;63.30;;;58.80;;
25231;SDS011;13176;51.140;6.290;2022-10-31T07:35:34;66.55;;;62.08;;
25231;SDS011;13176;51.140;6.290;2022-10-31T07:38:10;63.28;;;59.10;;
25231;SDS011;13176;51.140;6.290;2022-10-31T07:40:39;65.78;;;60.97;;
25231;SDS011;13176;51.140;6.290;2022-10-31T07:43:06;63.97;;;59.75;;
25231;SDS011;13176;51.140;6.290;2022-10-31T07:45:38;64.70;;;60.40;;
25231;SDS011;13176;51.140;6.290;2022-10-31T07:48:04;64.18;;;58.90;;
25231;SDS011;13176;51.140;6.290;2022-10-31T07:50:32;65.45;;;60.38;;
25231;SDS011;13176;51.140;6.290;2022-10-31T07:53:08;66.65;;;61.83;;
25231;SDS011;13176;51.140;6.290;2022-10-31T07:55:37;68.65;;;63.70;;
25231;SDS011;13176;51.140;6.290;2022-10-31T07:58:04;64.55;;;60.00;;
25231;SDS011;13176;51.140;6.290;2022-10-31T08:00:32;69.63;;;64.18;;
25231;SDS011;13176;51.140;6.290;2022-10-31T08:03:00;68.38;;;63.10;;
25231;SDS011;13176;51.140;6.290;2022-10-31T08:05:29;74.65;;;69.00;;
25231;SDS011;13176;51.140;6.290;2022-10-31T08:07:56;76.15;;;70.63;;
25231;SDS011;13176;51.140;6.290;2022-10-31T08:10:25;76.70;;;71.20;;
25231;SDS011;13176;51.140;6.290;2022-10-31T08:12:55;74.57;;;68.97;;
25231;SDS011;13176;51.140;6.290;2022-10-31T08:15:23;71.65;;;66.80;;
25231;SDS011;13176;51.140;6.290;2022-10-31T08:17:50;69.18;;;64.32;;
25231;SDS011;13176;51.140;6.290;2022-10-31T08:20:16;68.63;;;63.83;;
25231;SDS011;13176;51.140;6.290;2022-10-31T08:22:51;66.45;;;61.78;;
25231;SDS011;13176;51.140;6.290;2022-10-31T08:25:18;64.63;;;59.88;;
25231;SDS011;13176;51.140;6.290;2022-10-31T08:27:49;62.15;;;57.78;;
25231;SDS011;13176;51.140;6.290;2022-10-31T08:30:16;65.22;;;59.95;;
25231;SDS011;13176;51.140;6.290;2022-10-31T08:32:43;64.95;;;59.75;;
25231;SDS011;13176;51.140;6.290;2022-10-31T08:35:11;64.30;;;59.35;;
25231;SDS011;13176;51.140;6.290;2022-10-31T08:37:37;58.58;;;54.30;;
25231;SDS011;13176;51.140;6.290;2022-10-31T08:40:04;61.25;;;56.47;;
25231;SDS011;13176;51.140;6.290;2022-10-31T08:42:32;65.72;;;60.50;;
25231;SDS011;13176;51.140;6.290;2022-10-31T08:44:58;64.57;;;59.95;;
25231;SDS011;13176;51.140;6.290;2022-10-31T08:47:25;60.35;;;56.08;;
25231;SDS011;13176;51.140;6.290;2022-10-31T08:49:51;60.58;;;56.05;;
25231;SDS011;13176;51.140;6.290;2022-10-31T08:52:18;64.10;;;59.17;;
25231;SDS011;13176;51.140;6.290;2022-10-31T08:54:44;67.30;;;62.42;;
25231;SDS011;13176;51.140;6.290;2022-10-31T08:57:10;63.35;;;58.25;;
25231;SDS011;13176;51.140;6.290;2022-10-31T08:59:37;61.47;;;56.83;;
25231;SDS011;13176;51.140;6.290;2022-10-31T09:02:04;63.25;;;59.05;;
25231;SDS011;13176;51.140;6.290;2022-10-31T09:04:31;65.07;;;60.25;;
25231;SDS011;13176;51.140;6.290;2022-10-31T09:06:57;65.57;;;60.88;;
25231;SDS011;13176;51.140;6.290;2022-10-31T09:09:43;67.80;;;62.33;;
25231;SDS011;13176;51.140;6.290;2022-10-31T09:12:10;67.00;;;61.47;;
25231;SDS011;13176;51.140;6.290;2022-10-31T09:14:36;61.03;;;56.83;;
25231;SDS011;13176;51.140;6.290;2022-10-31T09:17:02;68.32;;;63.25;;
25231;SDS011;13176;51.140;6.290;2022-10-31T09:19:29;69.13;;;64.05;;
25231;SDS011;13176;51.140;6.290;2022-10-31T09:21:55;66.63;;;61.38;;
25231;SDS011;13176;51.140;6.290;2022-10-31T09:24:22;67.38;;;62.40;;
25231;SDS011;13176;51.140;6.290;2022-10-31T09:26:48;65.07;;;60.33;;
25231;SDS011;13176;51.140;6.290;2022-10-31T09:29:14;67.85;;;62.45;;
25231;SDS011;13176;51.140;6.290;2022-10-31T09:31:41;70.05;;;64.82;;
25231;SDS011;13176;51.140;6.290;2022-10-31T09:34:10;71.63;;;66.32;;
25231;SDS011;13176;51.140;6.290;2022-10-31T09:36:37;62.58;;;58.35;;
25231;SDS011;13176;51.140;6.290;2022-10-31T09:39:04;67.38;;;62.53;;
25231;SDS011;13176;51.140;6.290;2022-10-31T09:41:50;65.88;;;61.17;;
25231;SDS011;13176;51.140;6.290;2022-10-31T09:44:26;55.10;;;51.20;;
25231;SDS011;13176;51.140;6.290;2022-10-31T09:47:17;60.60;;;56.13;;
25231;SDS011;13176;51.140;6.290;2022-10-31T09:49:53;57.38;;;52.97;;
25231;SDS011;13176;51.140;6.290;2022-10-31T09:52:44;56.97;;;52.60;;
25231;SDS011;13176;51.140;6.290;2022-10-31T09:55:39;49.90;;;46.33;;
25231;SDS011;13176;51.140;6.290;2022-10-31T09:58:09;50.88;;;47.28;;
25231;SDS011;13176;51.140;6.290;2022-10-31T10:00:46;50.78;;;47.00;;
25231;SDS011;13176;51.140;6.290;2022-10-31T10:03:21;43.30;;;40.08;;
25231;SDS011;13176;51.140;6.290;2022-10-31T10:05:58;40.80;;;37.97;;
25231;SDS011;13176;51.140;6.290;2022-10-31T10:08:31;38.60;;;35.67;;
25231;SDS011;13176;51.140;6.290;2022-10-31T10:13:57;41.63;;;38.78;;
25231;SDS011;13176;51.140;6.290;2022-10-31T10:27:49;38.08;;;35.03;;
25231;SDS011;13176;51.140;6.290;2022-10-31T10:30:38;43.03;;;39.67;;
25231;SDS011;13176;51.140;6.290;2022-10-31T10:33:24;41.30;;;37.95;;
25231;SDS011;13176;51.140;6.290;2022-10-31T10:35:58;39.58;;;36.50;;
25231;SDS011;13176;51.140;6.290;2022-10-31T10:38:41;39.63;;;36.78;;
25231;SDS011;13176;51.140;6.290;2022-10-31T10:41:11;40.10;;;37.00;;
25231;SDS011;13176;51.140;6.290;2022-10-31T10:43:50;41.30;;;38.38;;
25231;SDS011;13176;51.140;6.290;2022-10-31T10:46:37;38.88;;;35.58;;
25231;SDS011;13176;51.140;6.290;2022-10-31T10:52:18;35.92;;;32.85;;
25231;SDS011;13176;51.140;6.290;2022-10-31T10:57:55;40.70;;;37.65;;
25231;SDS011;13176;51.140;6.290;2022-10-31T11:00:26;36.25;;;33.47;;
25231;SDS011;13176;51.140;6.290;2022-10-31T11:02:55;39.72;;;36.55;;
25231;SDS011;13176;51.140;6.290;2022-10-31T11:08:52;39.47;;;36.00;;
25231;SDS011;13176;51.140;6.290;2022-10-31T11:13:54;36.75;;;33.88;;
25231;SDS011;13176;51.140;6.290;2022-10-31T11:16:38;39.42;;;36.45;;
25231;SDS011;13176;51.140;6.290;2022-10-31T11:21:43;37.97;;;35.22;;
25231;SDS011;13176;51.140;6.290;2022-10-31T11:24:22;41.40;;;37.38;;
25231;SDS011;13176;51.140;6.290;2022-10-31T11:27:03;39.22;;;36.22;;
25231;SDS011;13176;51.140;6.290;2022-10-31T11:30:03;39.97;;;36.65;;
25231;SDS011;13176;51.140;6.290;2022-10-31T11:32:31;39.63;;;36.15;;
25231;SDS011;13176;51.140;6.290;2022-10-31T11:34:59;38.30;;;35.35;;
25231;SDS011;13176;51.140;6.290;2022-10-31T11:37:35;40.28;;;37.33;;
25231;SDS011;13176;51.140;6.290;2022-10-31T11:40:18;38.25;;;35.33;;
25231;SDS011;13176;51.140;6.290;2022-10-31T11:42:47;37.30;;;34.40;;
25231;SDS011;13176;51.140;6.290;2022-10-31T11:47:49;47.75;;;44.33;;
25231;SDS011;13176;51.140;6.290;2022-10-31T11:50:31;43.28;;;40.00;;
25231;SDS011;13176;51.140;6.290;2022-10-31T11:53:15;39.47;;;36.60;;
25231;SDS011;13176;51.140;6.290;2022-10-31T11:55:44;40.72;;;37.47;;
25231;SDS011;13176;51.140;6.290;2022-10-31T11:58:22;37.70;;;34.80;;
25231;SDS011;13176;51.140;6.290;2022-10-31T12:00:52;39.15;;;35.58;;
25231;SDS011;13176;51.140;6.290;2022-10-31T12:03:29;36.70;;;33.88;;
25231;SDS011;13176;51.140;6.290;2022-10-31T12:06:09;37.60;;;34.83;;
25231;SDS011;13176;51.140;6.290;2022-10-31T12:08:49;38.50;;;35.45;;
25231;SDS011;13176;51.140;6.290;2022-10-31T12:16:32;33.22;;;30.35;;
25231;SDS011;13176;51.140;6.290;2022-10-31T12:19:11;30.30;;;27.38;;
25231;SDS011;13176;51.140;6.290;2022-10-31T12:22:17;24.55;;;22.27;;
25231;SDS011;13176;51.140;6.290;2022-10-31T12:27:48;25.15;;;23.20;;
25231;SDS011;13176;51.140;6.290;2022-10-31T12:33:55;23.48;;;21.27;;
25231;SDS011;13176;51.140;6.290;2022-10-31T12:37:00;23.92;;;21.73;;
25231;SDS011;13176;51.140;6.290;2022-10-31T12:39:42;22.65;;;20.33;;
25231;SDS011;13176;51.140;6.290;2022-10-31T12:42:21;24.58;;;22.35;;
25231;SDS011;13176;51.140;6.290;2022-10-31T12:45:29;23.95;;;22.05;;
25231;SDS011;13176;51.140;6.290;2022-10-31T12:48:16;24.75;;;22.77;;
25231;SDS011;13176;51.140;6.290;2022-10-31T12:58:46;22.40;;;20.50;;
25231;SDS011;13176;51.140;6.290;2022-10-31T13:04:02;19.33;;;17.77;;
25231;SDS011;13176;51.140;6.290;2022-10-31T13:06:52;20.20;;;18.42;;
25231;SDS011;13176;51.140;6.290;2022-10-31T13:09:28;20.02;;;18.00;;
25231;SDS011;13176;51.140;6.290;2022-10-31T13:12:06;21.23;;;19.30;;
25231;SDS011;13176;51.140;6.290;2022-10-31T13:14:40;21.00;;;19.10;;
25231;SDS011;13176;51.140;6.290;2022-10-31T13:17:47;21.20;;;19.55;;
25231;SDS011;13176;51.140;6.290;2022-10-31T13:22:46;19.85;;;18.10;;
25231;SDS011;13176;51.140;6.290;2022-10-31T13:25:21;21.90;;;20.10;;
25231;SDS011;13176;51.140;6.290;2022-10-31T13:30:26;22.80;;;20.88;;
25231;SDS011;13176;51.140;6.290;2022-10-31T13:35:38;22.60;;;20.60;;
25231;SDS011;13176;51.140;6.290;2022-10-31T13:38:21;22.70;;;20.65;;
25231;SDS011;13176;51.140;6.290;2022-10-31T13:43:58;16.90;;;15.32;;
25231;SDS011;13176;51.140;6.290;2022-10-31T13:48:59;17.77;;;16.00;;
25231;SDS011;13176;51.140;6.290;2022-10-31T13:51:30;18.20;;;16.45;;
25231;SDS011;13176;51.140;6.290;2022-10-31T13:54:06;18.08;;;16.58;;
25231;SDS011;13176;51.140;6.290;2022-10-31T13:56:50;18.08;;;16.40;;
25231;SDS011;13176;51.140;6.290;2022-10-31T14:01:47;17.52;;;16.00;;
25231;SDS011;13176;51.140;6.290;2022-10-31T14:04:36;17.45;;;15.95;;
25231;SDS011;13176;51.140;6.290;2022-10-31T14:07:09;17.38;;;15.77;;
25231;SDS011;13176;51.140;6.290;2022-10-31T14:12:31;16.88;;;15.45;;
25231;SDS011;13176;51.140;6.290;2022-10-31T14:15:02;18.13;;;16.10;;
25231;SDS011;13176;51.140;6.290;2022-10-31T14:17:40;17.90;;;16.20;;
25231;SDS011;13176;51.140;6.290;2022-10-31T14:22:40;18.58;;;16.88;;
25231;SDS011;13176;51.140;6.290;2022-10-31T14:28:02;25.38;;;16.20;;
25231;SDS011;13176;51.140;6.290;2022-10-31T14:30:54;16.60;;;15.20;;
25231;SDS011;13176;51.140;6.290;2022-10-31T14:33:24;17.40;;;15.55;;
25231;SDS011;13176;51.140;6.290;2022-10-31T14:52:19;15.98;;;14.70;;
25231;SDS011;13176;51.140;6.290;2022-10-31T14:54:49;19.50;;;16.15;;
25231;SDS011;13176;51.140;6.290;2022-10-31T14:57:23;17.92;;;16.05;;
25231;SDS011;13176;51.140;6.290;2022-10-31T14:59:59;16.70;;;14.98;;
25231;SDS011;13176;51.140;6.290;2022-10-31T15:05:08;17.65;;;14.52;;
25231;SDS011;13176;51.140;6.290;2022-10-31T15:07:36;15.73;;;14.27;;
25231;SDS011;13176;51.140;6.290;2022-10-31T15:10:15;16.20;;;14.02;;
25231;SDS011;13176;51.140;6.290;2022-10-31T15:12:46;20.67;;;15.20;;
25231;SDS011;13176;51.140;6.290;2022-10-31T15:15:23;17.02;;;14.43;;
25231;SDS011;13176;51.140;6.290;2022-10-31T15:17:56;19.13;;;14.95;;
25231;SDS011;13176;51.140;6.290;2022-10-31T15:20:26;18.25;;;16.40;;
25231;SDS011;13176;51.140;6.290;2022-10-31T15:22:55;19.15;;;17.33;;
25231;SDS011;13176;51.140;6.290;2022-10-31T15:25:24;18.60;;;17.05;;
25231;SDS011;13176;51.140;6.290;2022-10-31T15:27:54;19.98;;;17.65;;
25231;SDS011;13176;51.140;6.290;2022-10-31T15:30:24;18.70;;;17.08;;
25231;SDS011;13176;51.140;6.290;2022-10-31T15:32:53;17.55;;;15.93;;
25231;SDS011;13176;51.140;6.290;2022-10-31T15:35:28;16.08;;;14.68;;
25231;SDS011;13176;51.140;6.290;2022-10-31T15:37:56;17.55;;;15.85;;
25231;SDS011;13176;51.140;6.290;2022-10-31T15:40:25;16.30;;;15.02;;
25231;SDS011;13176;51.140;6.290;2022-10-31T15:42:54;18.40;;;16.48;;
25231;SDS011;13176;51.140;6.290;2022-10-31T15:45:24;18.60;;;16.30;;
25231;SDS011;13176;51.140;6.290;2022-10-31T15:47:54;19.02;;;17.67;;
25231;SDS011;13176;51.140;6.290;2022-10-31T15:50:28;17.80;;;16.30;;
25231;SDS011;13176;51.140;6.290;2022-10-31T15:55:27;15.80;;;14.50;;
25231;SDS011;13176;51.140;6.290;2022-10-31T15:57:56;20.05;;;18.40;;
25231;SDS011;13176;51.140;6.290;2022-10-31T16:00:28;24.30;;;22.05;;
25231;SDS011;13176;51.140;6.290;2022-10-31T16:03:05;22.75;;;20.40;;
25231;SDS011;13176;51.140;6.290;2022-10-31T16:05:48;21.50;;;19.40;;
25231;SDS011;13176;51.140;6.290;2022-10-31T16:08:24;20.83;;;18.92;;
25231;SDS011;13176;51.140;6.290;2022-10-31T16:10:52;21.70;;;19.50;;
25231;SDS011;13176;51.140;6.290;2022-10-31T16:13:20;21.92;;;20.20;;
25231;SDS011;13176;51.140;6.290;2022-10-31T16:15:56;23.98;;;22.08;;
25231;SDS011;13176;51.140;6.290;2022-10-31T16:18:45;24.85;;;22.65;;
25231;SDS011;13176;51.140;6.290;2022-10-31T16:21:12;24.40;;;22.65;;
25231;SDS011;13176;51.140;6.290;2022-10-31T16:23:39;23.73;;;21.70;;
25231;SDS011;13176;51.140;6.290;2022-10-31T16:26:14;25.67;;;23.27;;
25231;SDS011;13176;51.140;6.290;2022-10-31T16:28:54;24.10;;;22.40;;
25231;SDS011;13176;51.140;6.290;2022-10-31T16:31:39;27.30;;;24.50;;
25231;SDS011;13176;51.140;6.290;2022-10-31T16:34:17;27.10;;;25.00;;
25231;SDS011;13176;51.140;6.290;2022-10-31T16:36:51;28.23;;;26.23;;
25231;SDS011;13176;51.140;6.290;2022-10-31T16:39:18;28.30;;;26.00;;
25231;SDS011;13176;51.140;6.290;2022-10-31T16:41:46;28.70;;;26.63;;
25231;SDS011;13176;51.140;6.290;2022-10-31T16:44:19;30.13;;;27.45;;
25231;SDS011;13176;51.140;6.290;2022-10-31T16:46:51;29.55;;;27.40;;
25231;SDS011;13176;51.140;6.290;2022-10-31T16:49:33;31.45;;;29.02;;
25231;SDS011;13176;51.140;6.290;2022-10-31T16:51:59;32.15;;;29.73;;
25231;SDS011;13176;51.140;6.290;2022-10-31T16:54:27;31.73;;;29.38;;
25231;SDS011;13176;51.140;6.290;2022-10-31T16:56:55;30.95;;;28.48;;
25231;SDS011;13176;51.140;6.290;2022-10-31T16:59:21;31.02;;;28.58;;
25231;SDS011;13176;51.140;6.290;2022-10-31T17:01:48;33.45;;;30.83;;